Mexia, Alabama
Current Conditions -  °F | °C
As of 12:53 PM on Tuesday 27 Jan 2015 (Local Time) from KGZH Reporting Station
Clear Clear  
Wind Chill: 63°   Ceiling: Unl
Heat Index: 63°   Visibility: 10mi
Dew Point: 36°   Wind: 8mph
Humidity: 37%   Direction: 330°NNW
Pressure: 30.02"   Gusts: NA
Location:  31.51°N, 87.39°W
Report Text: KGZH 271853Z AUTO 33007KT 310V020 10SM CLR 17/02 A3002 RMK AO2 SLP165 T01720022
Loading
Personal Weather Stations






























Interactive Weather Map New forecast layout! Learn more

10-Day Weather Forecast

Advertisements
Track Severe Weather on mobile